Time;durP1;ratioP1;P1;durP2;ratioP2;P2;SDS_P1;SDS_P2;PMS_P1;PMS_P2;Temp;Humidity;BMP_temperature;BMP_pressure;BME280_temperature;BME280_humidity;BME280_pressure;Samples;Min_cycle;Max_cycle;Signal;HPM_P1;HPM_P2
2022/05/24 00:02:02;;;;;;;3.83;3.20;;;17.60;99.90;;;;;;5032031;28;20240;-68
2022/05/24 00:04:31;;;;;;;4.53;3.15;;;17.60;99.90;;;;;;5032181;28;21175;-70
2022/05/24 00:07:00;;;;;;;4.45;3.20;;;17.50;99.90;;;;;;5032362;28;20200;-70
2022/05/24 00:09:28;;;;;;;3.67;3.38;;;17.40;99.90;;;;;;5028640;28;20201;-70
2022/05/24 00:11:56;;;;;;;4.32;3.92;;;17.40;99.90;;;;;;5025629;28;20220;-68
2022/05/24 00:17:07;;;;;;;3.30;2.92;;;17.10;99.90;;;;;;5026301;28;20661;-70
2022/05/24 00:19:36;;;;;;;4.05;3.20;;;17.10;99.90;;;;;;5030835;28;20205;-69
2022/05/24 00:22:04;;;;;;;3.00;2.80;;;17.00;99.90;;;;;;5027876;28;20621;-69
2022/05/24 00:24:32;;;;;;;7.45;3.88;;;16.90;99.90;;;;;;5033259;28;20201;-70
2022/05/24 00:27:00;;;;;;;3.33;3.13;;;16.90;99.90;;;;;;5033004;28;20196;-70
2022/05/24 00:29:28;;;;;;;3.75;3.53;;;16.80;99.90;;;;;;5032930;28;20721;-70
2022/05/24 00:31:56;;;;;;;3.63;3.20;;;16.80;99.90;;;;;;5032836;28;20224;-68
2022/05/24 00:34:24;;;;;;;5.03;2.78;;;16.80;99.90;;;;;;5028203;28;20242;-70
2022/05/24 00:36:53;;;;;;;2.90;2.50;;;16.70;99.90;;;;;;5027614;28;20224;-70
2022/05/24 00:39:21;;;;;;;2.63;2.40;;;16.70;99.90;;;;;;5030406;28;20239;-70
2022/05/24 00:41:57;;;;;;;2.50;2.35;;;16.70;99.90;;;;;;5031420;28;20213;-71
2022/05/24 00:44:30;;;;;;;3.40;2.30;;;16.70;99.90;;;;;;5026272;28;20905;-70
2022/05/24 00:47:01;;;;;;;3.83;2.72;;;16.80;99.90;;;;;;5032606;28;20203;-71
2022/05/24 00:49:32;;;;;;;2.45;2.35;;;17.00;99.90;;;;;;5030607;28;20201;-70
2022/05/24 00:52:08;;;;;;;4.20;2.70;;;17.00;99.90;;;;;;5030419;28;20278;-70
2022/05/24 00:54:36;;;;;;;3.50;3.20;;;16.90;99.90;;;;;;5031543;28;20224;-70
2022/05/24 00:57:11;;;;;;;3.05;2.85;;;16.90;99.90;;;;;;5031100;28;20197;-70
2022/05/24 00:59:45;;;;;;;3.00;2.80;;;16.90;99.90;;;;;;5029357;28;20254;-69
2022/05/24 01:02:13;;;;;;;3.97;3.78;;;17.00;99.90;;;;;;5026046;28;20689;-70
2022/05/24 01:04:42;;;;;;;3.97;3.67;;;17.10;99.90;;;;;;5029696;28;20218;-71
2022/05/24 01:07:12;;;;;;;3.50;3.20;;;17.00;99.90;;;;;;5032002;28;20195;-71
2022/05/24 01:09:45;;;;;;;2.70;2.47;;;17.00;99.90;;;;;;5031314;28;20196;-71
2022/05/24 01:12:20;;;;;;;3.15;2.90;;;17.00;99.90;;;;;;5030757;28;20259;-71
2022/05/24 01:14:48;;;;;;;3.55;3.35;;;16.90;99.90;;;;;;5030413;28;20262;-71
2022/05/24 01:17:17;;;;;;;3.30;3.10;;;16.70;99.90;;;;;;5030647;28;20196;-70
2022/05/24 01:19:47;;;;;;;3.00;2.85;;;16.70;99.90;;;;;;5030582;28;20839;-70
2022/05/24 01:22:41;;;;;;;5.38;3.08;;;16.80;99.90;;;;;;5030199;28;20760;-70
2022/05/24 01:25:23;;;;;;;3.45;3.00;;;16.80;99.90;;;;;;5026261;28;20188;-72
2022/05/24 01:27:52;;;;;;;3.00;2.70;;;16.80;99.90;;;;;;5029247;28;20279;-71
2022/05/24 01:30:20;;;;;;;3.80;3.45;;;17.00;99.90;;;;;;5031041;28;20201;-71
2022/05/24 01:38:24;;;;;;;2.47;2.10;;;17.00;99.90;;;;;;5024405;28;20642;-72
2022/05/24 01:40:54;;;;;;;4.80;3.10;;;17.10;99.90;;;;;;5030247;28;20220;-71
2022/05/24 01:43:26;;;;;;;2.67;2.47;;;17.20;99.90;;;;;;5030286;28;20232;-71
2022/05/24 01:46:00;;;;;;;3.78;2.85;;;17.30;99.90;;;;;;5029092;28;20204;-71
2022/05/24 01:48:32;;;;;;;2.90;2.70;;;17.20;99.90;;;;;;5030170;28;20192;-72
2022/05/24 01:51:02;;;;;;;5.00;3.28;;;17.30;99.90;;;;;;5029463;28;20197;-71
2022/05/24 01:53:36;;;;;;;3.70;2.85;;;17.30;99.90;;;;;;5029908;28;20225;-71
2022/05/24 01:56:29;;;;;;;2.72;2.53;;;17.40;99.90;;;;;;5024257;28;20200;-70
2022/05/24 01:59:02;;;;;;;2.80;2.53;;;17.20;99.90;;;;;;5029039;28;20231;-70
2022/05/24 02:01:41;;;;;;;3.78;3.13;;;17.10;99.90;;;;;;5030891;28;20286;-71
2022/05/24 02:04:08;;;;;;;3.22;2.95;;;17.00;99.90;;;;;;5029277;28;20282;-71
2022/05/24 02:06:37;;;;;;;3.13;2.80;;;16.90;99.90;;;;;;5025947;28;20200;-70
2022/05/24 02:09:07;;;;;;;3.92;3.53;;;16.90;99.90;;;;;;5031175;28;20204;-67
2022/05/24 02:11:36;;;;;;;3.35;2.58;;;16.80;99.90;;;;;;5030378;28;20251;-70
2022/05/24 02:14:12;;;;;;;3.33;3.08;;;16.80;99.90;;;;;;5026908;28;20243;-71
2022/05/24 02:16:48;;;;;;;2.88;2.67;;;16.70;99.90;;;;;;5031062;28;20307;-70
2022/05/24 02:19:17;;;;;;;3.60;3.40;;;16.70;99.90;;;;;;5027838;28;20196;-69
2022/05/24 02:21:47;;;;;;;2.90;2.70;;;16.70;99.90;;;;;;5029135;28;20232;-69
2022/05/24 02:24:19;;;;;;;2.80;2.70;;;16.80;99.90;;;;;;5028426;28;20220;-70
2022/05/24 02:26:48;;;;;;;2.78;2.58;;;16.70;99.90;;;;;;5027397;28;20270;-70
2022/05/24 02:29:18;;;;;;;8.85;3.63;;;16.70;99.90;;;;;;5027190;28;20743;-71
2022/05/24 02:31:46;;;;;;;4.43;3.78;;;16.80;99.90;;;;;;5024814;28;20255;-71
2022/05/24 02:34:15;;;;;;;5.68;3.28;;;16.80;99.90;;;;;;5028386;28;20294;-71
2022/05/24 02:36:43;;;;;;;4.63;4.22;;;16.70;99.90;;;;;;5030221;28;20650;-72
2022/05/24 02:39:12;;;;;;;3.72;3.42;;;16.40;99.90;;;;;;5029950;28;20821;-71
2022/05/24 02:41:39;;;;;;;4.65;3.55;;;16.20;99.90;;;;;;5029521;28;20341;-71
2022/05/24 02:44:09;;;;;;;4.35;3.88;;;16.20;99.90;;;;;;5029447;28;20193;-71
2022/05/24 02:46:40;;;;;;;3.90;3.60;;;16.20;99.90;;;;;;5029602;28;20283;-67
2022/05/24 02:49:08;;;;;;;5.70;4.97;;;16.30;99.90;;;;;;5024328;28;20735;-71
2022/05/24 02:51:38;;;;;;;5.40;4.90;;;16.30;99.90;;;;;;5030234;28;20247;-71
2022/05/24 02:54:07;;;;;;;5.70;5.30;;;16.10;99.90;;;;;;5026434;28;20270;-71
2022/05/24 02:56:35;;;;;;;5.80;4.78;;;15.90;99.90;;;;;;5030444;28;20223;-73
2022/05/24 02:59:03;;;;;;;5.82;5.32;;;15.80;99.90;;;;;;5028607;28;20624;-72
2022/05/24 03:01:31;;;;;;;6.25;5.72;;;15.80;99.90;;;;;;5056797;22;20671;-61
2022/05/24 03:04:01;;;;;;;5.18;4.80;;;15.80;99.90;;;;;;5040067;28;20215;-60
2022/05/24 03:09:33;;;;;;;5.40;4.90;;;15.70;99.90;;;;;;5026220;28;20275;-61
2022/05/24 03:09:35;;;;;;;6.13;5.55;;;15.80;99.90;;;;;;5026851;28;20205;-61
2022/05/24 03:14:50;;;;;;;5.85;4.82;;;15.70;99.90;;;;;;5008002;28;20229;-60
2022/05/24 03:17:18;;;;;;;6.60;6.10;;;15.70;99.90;;;;;;5009587;28;20256;-61
2022/05/24 03:19:49;;;;;;;5.90;5.50;;;15.60;99.90;;;;;;5010714;28;20216;-59
2022/05/24 03:22:17;;;;;;;6.22;5.65;;;15.70;99.90;;;;;;5013698;28;20252;-62
2022/05/24 03:24:45;;;;;;;4.50;4.20;;;15.80;99.90;;;;;;5018810;28;20205;-60
2022/05/24 03:27:14;;;;;;;5.50;5.07;;;15.80;99.90;;;;;;5008531;28;20695;-60
2022/05/24 03:29:43;;;;;;;4.82;4.43;;;15.90;99.90;;;;;;5012627;28;20278;-60
2022/05/24 03:32:13;;;;;;;5.65;5.18;;;16.10;99.90;;;;;;5007732;28;20801;-59
2022/05/24 03:34:42;;;;;;;4.97;4.68;;;16.30;99.90;;;;;;5024802;28;20213;-62
2022/05/24 03:37:12;;;;;;;5.60;5.20;;;16.50;99.90;;;;;;5010292;28;20205;-62
2022/05/24 03:39:40;;;;;;;4.50;4.10;;;16.50;99.90;;;;;;5017661;28;20914;-60
2022/05/24 03:42:08;;;;;;;4.22;3.83;;;16.50;99.90;;;;;;5010491;28;20320;-61
2022/05/24 03:44:36;;;;;;;4.40;4.10;;;16.60;99.90;;;;;;5013599;28;20696;-61
2022/05/24 03:47:05;;;;;;;5.22;4.82;;;16.70;99.90;;;;;;5013441;28;20219;-61
2022/05/24 03:49:33;;;;;;;5.30;3.95;;;16.80;99.90;;;;;;5033101;28;20247;-62
2022/05/24 03:52:01;;;;;;;4.88;4.55;;;16.90;99.90;;;;;;5019030;28;20232;-62
2022/05/24 03:54:30;;;;;;;5.72;5.22;;;16.90;99.90;;;;;;5027906;28;20232;-61
2022/05/24 03:59:44;;;;;;;5.03;4.53;;;17.20;99.90;;;;;;5012186;28;21057;-61
2022/05/24 04:02:12;;;;;;;4.45;3.83;;;17.20;99.90;;;;;;5011627;28;20264;-61
2022/05/24 04:04:40;;;;;;;4.80;4.50;;;17.10;99.90;;;;;;5014637;28;20742;-60
2022/05/24 04:07:08;;;;;;;5.90;5.30;;;17.20;99.90;;;;;;5010261;28;20205;-60
2022/05/24 04:09:37;;;;;;;5.05;4.57;;;17.10;99.90;;;;;;5012068;28;20204;-62
2022/05/24 04:12:06;;;;;;;6.68;4.65;;;17.10;99.90;;;;;;5011689;28;21448;-62
2022/05/24 04:14:35;;;;;;;6.53;6.03;;;17.10;99.90;;;;;;5012307;28;20233;-62
2022/05/24 04:17:03;;;;;;;6.80;6.40;;;17.10;99.90;;;;;;5012010;28;20631;-60
2022/05/24 04:19:31;;;;;;;6.30;5.70;;;17.10;99.90;;;;;;5017949;28;20213;-62
2022/05/24 04:21:59;;;;;;;6.15;5.55;;;17.00;99.90;;;;;;5030916;28;20247;-61
2022/05/24 04:24:27;;;;;;;7.35;6.75;;;17.00;99.90;;;;;;5035331;28;20258;-61
2022/05/24 04:26:56;;;;;;;5.97;5.57;;;17.00;99.90;;;;;;5039033;28;20228;-61
2022/05/24 04:29:24;;;;;;;6.03;4.70;;;17.20;99.90;;;;;;5037553;28;20196;-62
2022/05/24 04:31:52;;;;;;;7.28;6.57;;;17.20;99.90;;;;;;5037690;28;20247;-62
2022/05/24 04:34:19;;;;;;;6.57;6.05;;;17.30;99.90;;;;;;5035442;28;20224;-62
2022/05/24 04:36:47;;;;;;;4.60;4.15;;;17.20;99.90;;;;;;5034762;28;20306;-61
2022/05/24 04:39:16;;;;;;;6.60;6.03;;;17.20;99.90;;;;;;5033745;28;20188;-59
2022/05/24 04:44:30;;;;;;;5.80;5.40;;;17.00;99.90;;;;;;5005859;28;20898;-61
2022/05/24 04:47:10;;;;;;;8.13;6.80;;;17.00;99.90;;;;;;5017668;28;20217;-61
2022/05/24 04:49:40;;;;;;;7.40;6.90;;;16.90;99.90;;;;;;5017731;28;20313;-60
2022/05/24 04:52:09;;;;;;;7.70;7.00;;;16.90;99.90;;;;;;5018478;28;20235;-61
2022/05/24 04:54:39;;;;;;;8.32;7.63;;;16.90;99.90;;;;;;5019325;28;20681;-60
2022/05/24 04:57:07;;;;;;;10.88;9.00;;;16.70;99.90;;;;;;5017646;28;20290;-61
2022/05/24 04:59:36;;;;;;;8.88;8.15;;;16.60;99.90;;;;;;5018662;28;21030;-60
2022/05/24 05:02:05;;;;;;;10.35;8.75;;;16.60;99.90;;;;;;5016687;28;20665;-61
2022/05/24 05:04:33;;;;;;;12.95;8.43;;;16.70;99.90;;;;;;5019383;28;20212;-60
2022/05/24 05:07:01;;;;;;;9.65;8.65;;;16.40;99.90;;;;;;5011781;28;20209;-61
2022/05/24 05:09:34;;;;;;;8.98;8.20;;;16.30;99.90;;;;;;5018424;28;20286;-62
2022/05/24 05:12:04;;;;;;;10.13;9.10;;;16.30;99.90;;;;;;5015313;28;20595;-60
2022/05/24 05:14:32;;;;;;;9.18;8.07;;;16.20;99.90;;;;;;5009199;28;20300;-60
2022/05/24 05:17:01;;;;;;;7.82;6.97;;;16.10;99.90;;;;;;5015300;28;20859;-60
2022/05/24 05:19:29;;;;;;;11.70;7.30;;;16.10;99.90;;;;;;5018270;28;20312;-61
2022/05/24 05:21:58;;;;;;;7.47;6.78;;;16.20;99.90;;;;;;5013586;28;21061;-61
2022/05/24 05:24:26;;;;;;;8.05;7.35;;;16.20;99.90;;;;;;5015839;28;20304;-61
2022/05/24 05:26:54;;;;;;;7.25;6.65;;;16.20;99.90;;;;;;5015559;28;20295;-61
2022/05/24 05:32:06;;;;;;;7.20;6.50;;;16.20;99.90;;;;;;5017331;28;20240;-61
2022/05/24 05:34:34;;;;;;;5.90;5.50;;;16.10;99.90;;;;;;5018233;28;20201;-61
2022/05/24 05:37:06;;;;;;;5.35;4.88;;;16.10;99.90;;;;;;5016924;28;21123;-61
2022/05/24 05:39:36;;;;;;;6.47;4.20;;;16.20;99.90;;;;;;5017944;28;21591;-61
2022/05/24 05:42:05;;;;;;;5.25;4.80;;;16.20;99.90;;;;;;5017642;28;20315;-61
2022/05/24 05:44:33;;;;;;;5.70;5.20;;;16.20;99.90;;;;;;5018619;28;20208;-61
2022/05/24 05:47:00;;;;;;;11.88;5.07;;;16.10;99.90;;;;;;5009321;28;20204;-61
2022/05/24 05:49:30;;;;;;;4.25;4.03;;;16.10;99.90;;;;;;5017241;28;20278;-62
2022/05/24 05:51:58;;;;;;;6.20;4.60;;;16.20;99.90;;;;;;5017959;28;20315;-61
2022/05/24 05:54:25;;;;;;;5.00;4.60;;;16.20;99.90;;;;;;5025248;28;20685;-61
2022/05/24 05:56:55;;;;;;;3.88;3.58;;;16.20;99.90;;;;;;5036764;28;20248;-62
2022/05/24 05:59:23;;;;;;;4.57;4.15;;;16.20;99.90;;;;;;5026885;28;20291;-59
2022/05/24 06:01:50;;;;;;;5.20;4.75;;;16.20;99.90;;;;;;5018595;28;20249;-60
2022/05/24 06:04:18;;;;;;;5.28;4.78;;;16.20;99.90;;;;;;5019035;28;20200;-61
2022/05/24 06:06:48;;;;;;;3.40;3.10;;;16.10;99.90;;;;;;5021245;28;20617;-60
2022/05/24 06:09:15;;;;;;;4.97;4.68;;;15.80;99.90;;;;;;5024518;28;20220;-62
2022/05/24 06:11:44;;;;;;;4.85;3.63;;;15.60;99.90;;;;;;5034353;28;20712;-62
2022/05/24 06:14:12;;;;;;;3.50;3.30;;;15.50;99.90;;;;;;5032241;28;20254;-62
2022/05/24 06:16:41;;;;;;;4.70;3.40;;;15.50;99.90;;;;;;5030053;28;20295;-62
2022/05/24 06:19:09;;;;;;;2.85;2.60;;;15.30;99.90;;;;;;5025137;28;20712;-61
2022/05/24 06:21:37;;;;;;;2.08;1.88;;;15.20;99.90;;;;;;5023753;28;20204;-61
2022/05/24 06:24:08;;;;;;;5.00;1.83;;;15.10;99.90;;;;;;5036945;28;20204;-64
2022/05/24 06:26:36;;;;;;;2.72;1.50;;;15.10;99.90;;;;;;5035821;28;20278;-62
2022/05/24 06:29:05;;;;;;;1.30;1.20;;;15.10;99.90;;;;;;5030182;28;20744;-62
2022/05/24 06:31:33;;;;;;;2.20;1.42;;;15.10;99.90;;;;;;5031097;28;20238;-62
2022/05/24 06:34:01;;;;;;;2.22;1.63;;;15.20;99.90;;;;;;5030092;28;20670;-62
2022/05/24 06:36:29;;;;;;;3.17;1.10;;;15.20;99.90;;;;;;5030446;28;20290;-62
2022/05/24 06:38:57;;;;;;;1.20;1.10;;;15.40;99.90;;;;;;5030722;28;20200;-62
2022/05/24 06:41:26;;;;;;;1.30;1.20;;;15.50;99.90;;;;;;5030860;28;20765;-62
2022/05/24 06:43:54;;;;;;;1.15;1.05;;;15.50;99.90;;;;;;5030182;28;20235;-62
2022/05/24 06:46:22;;;;;;;2.15;1.60;;;15.70;99.90;;;;;;5030892;28;20694;-62
2022/05/24 06:48:50;;;;;;;1.35;1.25;;;15.70;99.90;;;;;;5028632;28;20575;-62
2022/05/24 06:51:20;;;;;;;3.58;1.08;;;15.70;99.90;;;;;;5030103;28;20192;-62
2022/05/24 06:53:50;;;;;;;2.85;1.60;;;15.80;99.90;;;;;;5032354;28;20786;-61
2022/05/24 06:56:19;;;;;;;1.30;1.00;;;15.90;99.90;;;;;;5024209;28;20235;-62
2022/05/24 06:58:48;;;;;;;1.17;0.90;;;15.80;99.90;;;;;;5024133;28;20614;-62
2022/05/24 07:04:02;;;;;;;2.10;1.17;;;15.90;99.90;;;;;;5029667;28;20319;-62
2022/05/24 07:06:31;;;;;;;1.48;1.38;;;16.00;99.90;;;;;;5030474;28;20207;-62
2022/05/24 07:08:59;;;;;;;1.90;1.80;;;16.20;99.90;;;;;;5030458;28;20662;-61
2022/05/24 07:11:27;;;;;;;1.52;1.10;;;16.30;99.90;;;;;;5032553;28;20204;-62
2022/05/24 07:13:56;;;;;;;2.42;1.25;;;16.30;99.90;;;;;;5033427;28;20421;-62
2022/05/24 07:16:24;;;;;;;1.88;1.40;;;16.20;99.90;;;;;;5034231;28;20232;-63
2022/05/24 07:18:52;;;;;;;2.47;0.90;;;16.00;99.90;;;;;;5034043;28;20362;-62
2022/05/24 07:21:20;;;;;;;1.10;0.73;;;15.80;99.90;;;;;;5033767;28;20250;-62
2022/05/24 07:23:48;;;;;;;1.00;0.90;;;15.70;99.90;;;;;;5033302;28;20266;-62
2022/05/24 07:26:17;;;;;;;;;;;15.80;99.90;;;;;;5034323;28;20231;-62
2022/05/24 07:29:06;;;;;;;;;;;15.90;99.90;;;;;;5034676;28;20078;-62
2022/05/24 07:31:33;;;;;;;;;;;16.00;99.90;;;;;;5034687;28;20228;-62
2022/05/24 07:34:01;;;;;;;;;;;16.10;99.90;;;;;;5033706;28;20280;-62
2022/05/24 07:36:29;;;;;;;;;;;16.30;99.90;;;;;;5034074;28;20214;-62
2022/05/24 07:38:58;;;;;;;;;;;16.40;99.90;;;;;;5034406;28;20637;-62
2022/05/24 07:46:57;;;;;;;;;;;16.30;99.90;;;;;;5034270;28;20548;-62
2022/05/24 07:49:25;;;;;;;;;;;16.30;99.90;;;;;;5031752;28;20199;-62
2022/05/24 07:51:52;;;;;;;;;;;16.40;99.90;;;;;;5035569;28;20266;-62
2022/05/24 07:54:20;;;;;;;;;;;16.40;99.90;;;;;;5035939;28;20207;-62
2022/05/24 07:56:48;;;;;;;;;;;16.40;99.90;;;;;;5034041;28;20211;-62
2022/05/24 07:59:17;;;;;;;;;;;16.50;99.90;;;;;;5033940;28;20071;-62
2022/05/24 08:01:45;;;;;;;;;;;16.80;99.90;;;;;;5033549;28;20299;-62
2022/05/24 08:04:12;;;;;;;;;;;16.80;99.90;;;;;;5033148;28;20130;-62
2022/05/24 08:06:40;;;;;;;;;;;16.70;99.90;;;;;;5033679;28;20220;-62
2022/05/24 08:09:08;;;;;;;;;;;16.90;99.90;;;;;;5033942;28;20234;-62
2022/05/24 08:11:36;;;;;;;;;;;17.20;99.90;;;;;;5033743;28;20257;-62
2022/05/24 08:14:06;;;;;;;;;;;17.30;99.90;;;;;;5032793;28;20605;-62
2022/05/24 08:16:35;;;;;;;;;;;17.30;99.90;;;;;;5033691;28;20290;-62
2022/05/24 08:19:04;;;;;;;;;;;17.30;99.90;;;;;;5033827;28;20203;-62
2022/05/24 08:21:32;;;;;;;;;;;17.40;99.90;;;;;;5030599;28;20664;-62
2022/05/24 08:24:00;;;;;;;;;;;17.50;99.90;;;;;;5032475;28;20676;-60
2022/05/24 08:26:28;;;;;;;;;;;17.70;99.90;;;;;;5036749;28;20221;-62
2022/05/24 08:28:56;;;;;;;;;;;17.90;99.90;;;;;;5033363;28;20245;-62
2022/05/24 08:31:25;;;;;;;;;;;18.00;99.90;;;;;;5033433;28;20603;-62
2022/05/24 08:33:54;;;;;;;;;;;18.00;99.90;;;;;;5032802;28;20276;-62
2022/05/24 08:36:22;;;;;;;;;;;17.90;99.90;;;;;;5033144;28;20289;-63
2022/05/24 08:38:50;;;;;;;;;;;17.90;99.90;;;;;;5033209;28;20253;-63
2022/05/24 08:41:21;;;;;;;;;;;18.00;99.90;;;;;;5033086;28;20286;-62
2022/05/24 08:49:54;;;;;;;;;;;18.00;99.90;;;;;;5032976;28;20712;-63
2022/05/24 08:52:22;;;;;;;;;;;18.00;99.90;;;;;;5028791;28;20256;-63
2022/05/24 08:54:50;;;;;;;;;;;17.90;99.90;;;;;;5033882;28;20792;-63
2022/05/24 08:57:22;;;;;;;;;;;17.90;99.90;;;;;;5026755;28;20290;-63
2022/05/24 08:59:53;;;;;;;;;;;18.00;99.90;;;;;;5027068;28;20207;-62
2022/05/24 09:02:21;;;;;;;;;;;17.90;99.90;;;;;;5053241;22;20233;-61
2022/05/24 09:04:49;;;;;;;;;;;17.60;99.90;;;;;;5072639;28;20224;-63
2022/05/24 09:07:24;;;;;;;;;;;17.80;99.90;;;;;;5072408;28;20248;-64
2022/05/24 09:09:56;;;;;;;;;;;18.00;99.90;;;;;;5072823;28;20267;-64
2022/05/24 09:12:35;;;;;;;2.05;0.60;;;18.20;99.90;;;;;;5068593;28;20248;-65
2022/05/24 09:15:12;;;;;;;0.80;0.60;;;18.20;99.90;;;;;;5052528;28;20239;-64
2022/05/24 09:17:53;;;;;;;0.93;0.50;;;18.10;99.90;;;;;;5051883;28;20331;-64
2022/05/24 09:20:31;;;;;;;1.08;0.50;;;18.10;99.90;;;;;;5052230;28;20207;-64
2022/05/24 09:23:03;;;;;;;0.98;0.50;;;18.00;99.90;;;;;;5042146;28;20696;-64
2022/05/24 09:25:51;;;;;;;1.27;0.60;;;18.20;99.90;;;;;;5051879;28;20245;-64
2022/05/24 09:28:19;;;;;;;0.70;0.63;;;18.50;99.90;;;;;;5051828;28;20633;-64
2022/05/24 09:30:47;;;;;;;1.40;0.63;;;19.00;99.90;;;;;;5051653;28;20229;-64
2022/05/24 09:33:23;;;;;;;0.85;0.55;;;19.40;99.90;;;;;;5050019;28;20299;-62
2022/05/24 09:35:56;;;;;;;0.82;0.60;;;19.70;99.90;;;;;;5051374;28;20231;-62
2022/05/24 09:38:33;;;;;;;2.78;0.60;;;20.00;99.90;;;;;;5051308;28;20219;-62
2022/05/24 09:41:14;;;;;;;1.17;0.50;;;20.30;99.90;;;;;;5051515;28;20715;-62
2022/05/24 09:43:42;;;;;;;0.90;0.60;;;20.40;99.90;;;;;;5050514;28;20730;-62
2022/05/24 09:46:16;;;;;;;0.70;0.65;;;20.30;99.90;;;;;;5051202;28;20654;-62
2022/05/24 09:48:53;;;;;;;1.40;0.55;;;19.90;99.90;;;;;;5051547;28;20199;-62
2022/05/24 09:51:26;;;;;;;1.00;0.55;;;19.90;99.90;;;;;;5051150;28;20613;-62
2022/05/24 09:53:56;;;;;;;0.93;0.60;;;20.00;99.90;;;;;;5038906;28;20219;-62
2022/05/24 09:56:28;;;;;;;1.67;0.57;;;20.10;99.90;;;;;;5050943;28;20337;-61
2022/05/24 09:58:59;;;;;;;0.70;0.50;;;20.50;99.90;;;;;;5051318;28;20247;-61
2022/05/24 10:01:35;;;;;;;1.52;0.50;;;20.70;99.90;;;;;;5045152;28;20269;-62
2022/05/24 10:04:17;;;;;;;0.70;0.50;;;20.90;99.90;;;;;;5050232;28;20241;-62
2022/05/24 10:06:57;;;;;;;2.58;0.73;;;21.10;99.90;;;;;;5050779;28;20283;-61
2022/05/24 10:09:38;;;;;;;0.75;0.65;;;21.50;99.90;;;;;;5050964;28;20253;-62
2022/05/24 10:12:13;;;;;;;2.45;0.70;;;21.30;99.90;;;;;;5050183;28;20269;-64
2022/05/24 10:14:50;;;;;;;0.70;0.60;;;20.80;99.90;;;;;;5045358;28;20433;-62
2022/05/24 10:17:24;;;;;;;1.80;0.60;;;20.90;99.90;;;;;;5050853;28;20614;-62
2022/05/24 10:20:00;;;;;;;2.65;0.60;;;20.80;99.90;;;;;;5050861;28;20249;-62
2022/05/24 10:22:39;;;;;;;4.50;1.02;;;20.80;99.90;;;;;;5041838;28;20644;-61
2022/05/24 10:25:16;;;;;;;1.83;0.75;;;20.90;99.90;;;;;;5049887;28;20204;-62
2022/05/24 10:27:59;;;;;;;1.92;0.57;;;21.00;99.90;;;;;;5050602;28;20619;-62
2022/05/24 10:30:32;;;;;;;1.13;0.70;;;20.70;99.90;;;;;;5046059;28;20200;-61
2022/05/24 10:39:06;;;;;;;2.22;1.25;;;21.00;99.90;;;;;;5050719;28;20215;-62
2022/05/24 10:41:49;;;;;;;0.75;0.55;;;21.20;99.90;;;;;;5050561;28;20661;-62
2022/05/24 10:44:23;;;;;;;1.48;0.70;;;21.30;99.90;;;;;;5050009;28;20230;-62
2022/05/24 10:46:59;;;;;;;1.30;0.70;;;21.00;99.90;;;;;;5054816;28;20670;-62
2022/05/24 10:49:34;;;;;;;2.42;1.25;;;21.30;99.90;;;;;;5054644;28;20672;-62
2022/05/24 10:52:06;;;;;;;1.13;0.70;;;21.90;99.90;;;;;;5053760;28;20273;-61
2022/05/24 10:54:42;;;;;;;0.80;0.60;;;22.00;99.90;;;;;;5049240;28;20199;-62
2022/05/24 10:57:16;;;;;;;1.65;0.85;;;21.60;99.90;;;;;;5054836;28;20661;-61
2022/05/24 10:59:51;;;;;;;0.95;0.60;;;21.20;99.90;;;;;;5054060;28;20293;-63
2022/05/24 11:02:29;;;;;;;1.58;0.60;;;20.90;99.90;;;;;;5047002;28;20227;-62
2022/05/24 11:05:02;;;;;;;2.50;0.98;;;20.60;99.90;;;;;;5049375;28;20208;-62
2022/05/24 11:07:34;;;;;;;1.42;0.60;;;20.60;99.90;;;;;;5054242;28;20239;-62
2022/05/24 11:10:09;;;;;;;2.30;1.25;;;21.20;99.90;;;;;;5054386;28;20200;-62
2022/05/24 11:12:43;;;;;;;1.48;0.90;;;21.90;99.90;;;;;;5053496;28;20238;-62
2022/05/24 11:15:19;;;;;;;0.80;0.68;;;22.40;99.90;;;;;;5054337;28;20227;-62
2022/05/24 11:17:47;;;;;;;1.60;0.98;;;22.40;99.90;;;;;;5054179;28;20229;-62
2022/05/24 11:20:21;;;;;;;1.95;0.60;;;22.60;99.30;;;;;;5053859;28;20262;-62
2022/05/24 11:23:01;;;;;;;1.45;0.70;;;22.60;99.30;;;;;;5042806;28;20276;-62
2022/05/24 11:25:34;;;;;;;0.80;0.60;;;22.50;99.40;;;;;;5048878;28;20204;-62
2022/05/24 11:28:26;;;;;;;2.45;1.08;;;22.20;98.80;;;;;;5053740;28;20203;-61
2022/05/24 11:30:57;;;;;;;1.65;0.60;;;22.30;98.30;;;;;;5053971;28;20246;-62
2022/05/24 11:33:41;;;;;;;1.15;0.60;;;21.80;99.00;;;;;;5053223;28;20223;-62
2022/05/24 11:36:42;;;;;;;0.98;0.88;;;21.80;99.90;;;;;;5048222;28;20203;-62
2022/05/24 11:39:17;;;;;;;4.75;1.30;;;21.50;99.80;;;;;;5050289;28;20231;-62
2022/05/24 11:41:45;;;;;;;2.20;0.70;;;21.90;99.90;;;;;;5053551;28;20302;-62
2022/05/24 11:44:33;;;;;;;0.90;0.82;;;22.40;99.90;;;;;;5053067;28;20223;-63
2022/05/24 11:47:01;;;;;;;0.82;0.55;;;22.80;98.90;;;;;;5053806;28;20212;-62
2022/05/24 11:49:59;;;;;;;3.47;0.73;;;23.00;98.80;;;;;;5053543;28;20742;-62
2022/05/24 11:52:45;;;;;;;1.92;0.60;;;23.10;97.20;;;;;;5052061;28;20285;-62
2022/05/24 11:55:46;;;;;;;1.15;0.70;;;22.90;97.80;;;;;;5053744;28;20207;-62
2022/05/24 11:58:42;;;;;;;1.92;0.70;;;23.10;97.80;;;;;;5046732;28;20199;-62
2022/05/24 12:01:48;;;;;;;1.35;0.77;;;23.30;96.70;;;;;;5049585;28;20212;-62
2022/05/24 12:07:57;;;;;;;2.25;0.68;;;23.60;95.90;;;;;;5053520;28;20265;-64
2022/05/24 12:11:12;;;;;;;1.80;0.80;;;23.50;97.00;;;;;;5052985;28;20196;-62
2022/05/24 12:14:16;;;;;;;1.88;0.65;;;23.30;98.60;;;;;;5034295;28;20266;-62
2022/05/24 12:17:08;;;;;;;1.77;0.70;;;24.30;97.30;;;;;;5045954;28;20211;-62
2022/05/24 12:19:49;;;;;;;4.70;0.90;;;24.80;95.70;;;;;;5046400;28;20212;-62
2022/05/24 12:22:20;;;;;;;0.90;0.77;;;24.40;94.70;;;;;;5042922;28;20597;-61
2022/05/24 12:24:57;;;;;;;1.98;0.88;;;24.00;95.00;;;;;;5050548;28;20243;-61
2022/05/24 12:27:46;;;;;;;2.25;0.80;;;23.90;94.90;;;;;;5052679;28;20226;-62
2022/05/24 12:30:39;;;;;;;0.75;0.70;;;23.50;94.70;;;;;;5052995;28;20234;-62
2022/05/24 12:33:18;;;;;;;1.83;0.60;;;23.10;94.20;;;;;;5052018;28;20713;-62
2022/05/24 12:35:56;;;;;;;2.30;0.90;;;23.50;94.70;;;;;;5052796;28;20208;-62
2022/05/24 12:38:27;;;;;;;0.80;0.70;;;24.00;94.30;;;;;;5052258;28;20291;-63
2022/05/24 12:41:19;;;;;;;0.60;0.40;;;24.10;93.80;;;;;;5052642;28;20231;-63
2022/05/24 12:43:52;;;;;;;1.80;0.50;;;24.10;94.10;;;;;;5052064;28;20220;-62
2022/05/24 12:46:20;;;;;;;0.70;0.60;;;24.40;92.50;;;;;;5052438;28;20204;-62
2022/05/24 12:48:57;;;;;;;2.72;0.93;;;24.90;93.60;;;;;;5052471;28;20206;-63
2022/05/24 12:51:25;;;;;;;2.85;0.65;;;24.80;92.40;;;;;;5052626;28;20196;-62
2022/05/24 12:53:53;;;;;;;1.13;0.55;;;24.00;93.20;;;;;;5045549;28;20254;-62
2022/05/24 12:56:23;;;;;;;2.35;0.60;;;23.50;93.50;;;;;;5052154;28;20238;-62
2022/05/24 12:58:54;;;;;;;1.25;0.60;;;23.30;93.70;;;;;;5052255;28;20250;-62
2022/05/24 13:01:25;;;;;;;1.55;0.55;;;23.00;93.90;;;;;;5051973;28;20306;-64
2022/05/24 13:04:14;;;;;;;0.70;0.60;;;23.20;94.50;;;;;;5051075;28;20243;-62
2022/05/24 13:06:44;;;;;;;1.00;0.60;;;23.60;94.20;;;;;;5052154;28;20254;-65
2022/05/24 13:09:19;;;;;;;0.90;0.50;;;23.80;93.60;;;;;;5051159;28;20208;-64
2022/05/24 13:11:50;;;;;;;1.60;0.63;;;24.10;94.20;;;;;;5051926;28;20249;-64
2022/05/24 13:14:45;;;;;;;3.72;0.68;;;24.30;93.50;;;;;;5051729;28;20719;-62
2022/05/24 13:17:17;;;;;;;0.98;0.68;;;24.60;93.50;;;;;;5052114;28;20279;-65
2022/05/24 13:19:54;;;;;;;2.45;0.80;;;24.40;92.50;;;;;;5051756;28;20212;-62
2022/05/24 13:22:26;;;;;;;1.40;0.80;;;24.00;92.40;;;;;;5041373;28;20216;-61
2022/05/24 13:25:00;;;;;;;1.67;0.60;;;23.50;93.70;;;;;;5049385;28;20254;-63
2022/05/24 13:27:49;;;;;;;1.70;0.70;;;23.70;94.10;;;;;;5051694;28;20257;-63
2022/05/24 13:35:52;;;;;;;0.85;0.60;;;24.50;91.50;;;;;;5051656;28;20246;-62
2022/05/24 13:38:24;;;;;;;1.40;0.80;;;24.60;91.90;;;;;;5051510;28;20266;-62
2022/05/24 13:40:55;;;;;;;1.58;0.60;;;24.70;90.90;;;;;;5051305;28;20242;-64
2022/05/24 13:43:34;;;;;;;2.05;0.73;;;24.90;90.40;;;;;;5050824;28;20584;-63
2022/05/24 13:46:23;;;;;;;1.00;0.68;;;25.30;90.60;;;;;;5051575;28;20234;-63
2022/05/24 13:48:54;;;;;;;0.82;0.68;;;25.90;90.30;;;;;;5048275;28;20223;-63
2022/05/24 13:51:29;;;;;;;2.03;0.75;;;26.10;89.90;;;;;;5050980;28;20200;-62
2022/05/24 13:53:58;;;;;;;1.73;0.60;;;26.40;88.40;;;;;;5043827;28;20227;-63
2022/05/24 13:56:28;;;;;;;4.85;0.75;;;26.00;87.90;;;;;;5051340;28;20626;-63
2022/05/24 13:59:08;;;;;;;4.82;1.02;;;25.90;88.50;;;;;;5051174;28;20199;-63
2022/05/24 14:01:38;;;;;;;2.78;0.70;;;25.50;89.00;;;;;;5044836;28;20589;-62
2022/05/24 14:04:11;;;;;;;3.17;0.60;;;24.90;87.00;;;;;;5050444;28;20239;-63
2022/05/24 14:06:49;;;;;;;4.60;0.80;;;24.70;87.60;;;;;;5050975;28;20204;-63
2022/05/24 14:09:17;;;;;;;3.80;0.70;;;24.50;90.20;;;;;;5051412;28;20199;-63
2022/05/24 14:11:50;;;;;;;0.60;0.50;;;24.70;90.20;;;;;;5050986;28;20234;-62